createdAt,value
2022-08-10T00:02:08.908Z,16.81
2022-08-10T00:04:35.804Z,16.80
2022-08-10T00:07:02.716Z,16.71
2022-08-10T00:09:29.713Z,16.67
2022-08-10T00:11:56.565Z,16.58
2022-08-10T00:14:23.510Z,16.53
2022-08-10T00:16:50.358Z,16.45
2022-08-10T00:19:18.156Z,16.42
2022-08-10T00:21:45.838Z,16.37
2022-08-10T00:24:12.945Z,16.31
2022-08-10T00:27:52.857Z,16.27
2022-08-10T00:29:26.846Z,16.24
2022-08-10T00:31:55.976Z,16.20
2022-08-10T00:34:29.492Z,16.17
2022-08-10T00:36:57.054Z,16.18
2022-08-10T00:39:24.461Z,16.15
2022-08-10T00:42:07.236Z,16.12
2022-08-10T00:44:35.651Z,16.12
2022-08-10T00:47:02.506Z,16.11
2022-08-10T00:49:29.425Z,16.11
2022-08-10T00:51:56.279Z,16.10
2022-08-10T00:54:24.668Z,16.03
2022-08-10T00:57:17.524Z,15.98
2022-08-10T00:59:57.863Z,15.97
2022-08-10T01:02:26.163Z,16.00
2022-08-10T01:04:59.703Z,16.01
2022-08-10T01:07:37.948Z,16.03
2022-08-10T01:10:22.415Z,16.01
2022-08-10T01:12:49.435Z,15.95
2022-08-10T01:15:26.870Z,15.90
2022-08-10T01:17:58.221Z,15.89
2022-08-10T01:20:37.770Z,15.85
2022-08-10T01:23:07.345Z,15.82
2022-08-10T01:26:12.161Z,15.77
2022-08-10T01:28:45.916Z,15.76
2022-08-10T01:31:14.521Z,15.75
2022-08-10T01:33:58.906Z,15.77
2022-08-10T01:36:35.388Z,15.77
2022-08-10T01:39:03.651Z,15.71
2022-08-10T01:41:45.518Z,15.69
2022-08-10T01:44:19.967Z,15.73
2022-08-10T01:46:48.856Z,15.74
2022-08-10T01:49:22.080Z,15.67
2022-08-10T01:51:56.289Z,15.64
2022-08-10T01:54:28.705Z,15.59
2022-08-10T01:56:56.768Z,15.58
2022-08-10T01:59:34.844Z,15.57
2022-08-10T02:02:03.619Z,15.56
2022-08-10T02:04:32.469Z,15.54
2022-08-10T02:07:01.020Z,15.51
2022-08-10T02:09:30.271Z,15.47
2022-08-10T02:12:07.272Z,15.45
2022-08-10T02:14:37.423Z,15.44
2022-08-10T02:17:06.706Z,15.39
2022-08-10T02:19:35.401Z,15.34
2022-08-10T02:22:36.625Z,15.27
2022-08-10T02:24:51.095Z,15.25
2022-08-10T02:27:18.860Z,15.22
2022-08-10T02:29:49.188Z,15.14
2022-08-10T02:32:22.254Z,15.11
2022-08-10T02:35:06.254Z,14.99
2022-08-10T02:37:34.209Z,14.92
2022-08-10T02:40:01.060Z,14.87
2022-08-10T02:45:19.720Z,14.83
2022-08-10T02:45:30.959Z,14.78
2022-08-10T02:48:06.380Z,14.72
2022-08-10T02:50:34.846Z,14.62
2022-08-10T02:53:05.355Z,14.56
2022-08-10T02:55:44.875Z,14.54
2022-08-10T02:58:18.265Z,14.53
2022-08-10T03:00:50.556Z,14.51
2022-08-10T03:03:23.402Z,14.48
2022-08-10T03:05:54.256Z,14.42
2022-08-10T03:08:24.751Z,14.36
2022-08-10T03:10:52.703Z,14.35
2022-08-10T03:13:21.928Z,14.29
2022-08-10T03:15:50.194Z,14.25
2022-08-10T03:18:18.487Z,14.23
2022-08-10T03:20:46.187Z,14.22
2022-08-10T03:23:14.783Z,14.25
2022-08-10T03:25:53.408Z,14.29
2022-08-10T03:28:25.569Z,14.31
2022-08-10T03:30:53.304Z,14.30
2022-08-10T03:33:21.404Z,14.29
2022-08-10T03:36:43.020Z,14.26
2022-08-10T03:38:35.319Z,14.22
2022-08-10T03:41:03.649Z,14.20
2022-08-10T03:43:30.890Z,14.14
2022-08-10T03:45:59.452Z,14.12
2022-08-10T03:48:44.762Z,14.08
2022-08-10T03:51:15.688Z,14.05
2022-08-10T03:54:05.128Z,14.05
2022-08-10T03:56:45.239Z,13.99
2022-08-10T03:59:13.082Z,13.95
2022-08-10T04:02:52.005Z,13.92
2022-08-10T04:04:28.682Z,13.86
2022-08-10T04:06:56.805Z,13.82
2022-08-10T04:09:43.479Z,13.79
2022-08-10T04:12:15.253Z,13.77
2022-08-10T04:14:51.296Z,13.71
2022-08-10T04:18:03.843Z,13.71
2022-08-10T04:20:10.100Z,13.72
2022-08-10T04:22:37.968Z,13.70
2022-08-10T04:25:06.560Z,13.67
2022-08-10T04:27:33.612Z,13.65
2022-08-10T04:30:00.670Z,13.67
2022-08-10T04:32:28.424Z,13.65
2022-08-10T04:34:56.381Z,13.64
2022-08-10T04:37:23.409Z,13.68
2022-08-10T04:39:50.500Z,13.71
2022-08-10T04:42:18.019Z,13.91
2022-08-10T04:44:44.864Z,14.10
2022-08-10T04:47:11.749Z,14.33
2022-08-10T04:49:54.698Z,14.52
2022-08-10T04:52:25.356Z,14.74
2022-08-10T04:54:52.416Z,14.93
2022-08-10T04:57:19.860Z,15.13
2022-08-10T04:59:47.830Z,15.26
2022-08-10T05:02:29.123Z,15.34
2022-08-10T05:04:57.905Z,15.50
2022-08-10T05:07:24.848Z,15.69
2022-08-10T05:10:01.332Z,15.84
2022-08-10T05:12:30.211Z,16.08
2022-08-10T05:14:57.092Z,16.36
2022-08-10T05:17:24.171Z,16.48
2022-08-10T05:20:04.244Z,16.49
2022-08-10T05:22:36.313Z,16.50
2022-08-10T05:25:03.770Z,16.78
2022-08-10T05:27:30.608Z,16.68
2022-08-10T05:30:02.573Z,16.77
2022-08-10T05:32:30.747Z,16.82
2022-08-10T05:34:57.783Z,16.84
2022-08-10T05:38:09.422Z,16.76
2022-08-10T05:40:12.212Z,16.83
2022-08-10T05:42:39.517Z,17.20
2022-08-10T05:45:06.755Z,17.36
2022-08-10T05:48:54.221Z,17.58
2022-08-10T05:50:26.127Z,17.85
2022-08-10T05:52:53.774Z,18.25
2022-08-10T05:55:22.105Z,18.53
2022-08-10T05:57:49.017Z,18.83
2022-08-10T06:00:37.437Z,18.96
2022-08-10T06:03:05.176Z,19.14
2022-08-10T06:05:34.254Z,19.36
2022-08-10T06:08:03.817Z,19.45
2022-08-10T06:10:32.983Z,19.42
2022-08-10T06:13:03.974Z,19.28
2022-08-10T06:15:50.737Z,19.40
2022-08-10T06:18:18.555Z,19.36
2022-08-10T06:20:47.829Z,19.75
2022-08-10T06:23:14.877Z,20.05
2022-08-10T06:26:10.994Z,20.27
2022-08-10T06:28:30.952Z,20.73
2022-08-10T06:30:59.362Z,21.08
2022-08-10T06:33:26.322Z,21.23
2022-08-10T06:35:55.002Z,21.55
2022-08-10T06:38:23.867Z,21.90
2022-08-10T06:40:54.126Z,22.22
2022-08-10T06:43:22.562Z,22.31
2022-08-10T06:46:07.650Z,22.63
2022-08-10T06:48:37.480Z,22.78
2022-08-10T06:51:06.872Z,22.97
2022-08-10T06:53:52.809Z,22.79
2022-08-10T06:56:36.110Z,22.79
2022-08-10T06:59:21.271Z,23.07
2022-08-10T07:01:52.571Z,23.10
2022-08-10T07:04:39.658Z,23.04
2022-08-10T07:07:07.660Z,23.29
2022-08-10T07:09:37.599Z,23.12
2022-08-10T07:12:09.249Z,23.51
2022-08-10T07:14:37.615Z,23.62
2022-08-10T07:17:05.538Z,23.84
2022-08-10T07:19:32.965Z,23.71
2022-08-10T07:22:00.589Z,23.76
2022-08-10T07:24:28.115Z,23.90
2022-08-10T07:26:56.059Z,24.12
2022-08-10T07:29:26.243Z,24.22
2022-08-10T07:32:12.001Z,24.54
2022-08-10T07:34:39.427Z,24.68
2022-08-10T07:37:08.103Z,24.51
2022-08-10T07:39:58.234Z,24.88
2022-08-10T07:42:28.721Z,25.02
2022-08-10T07:44:58.196Z,25.12
2022-08-10T07:47:46.389Z,25.22
2022-08-10T07:50:21.822Z,25.26
2022-08-10T07:52:49.549Z,25.13
2022-08-10T07:55:18.093Z,25.33
2022-08-10T07:57:46.419Z,25.70
2022-08-10T08:00:14.001Z,25.69
2022-08-10T08:02:49.943Z,25.65
2022-08-10T08:05:55.095Z,25.92
2022-08-10T08:08:07.227Z,25.77
2022-08-10T08:10:34.408Z,26.17
2022-08-10T08:13:02.330Z,26.06
2022-08-10T08:16:18.305Z,26.15
2022-08-10T08:18:20.539Z,26.05
2022-08-10T08:20:52.737Z,26.45
2022-08-10T08:24:04.584Z,26.40
2022-08-10T08:26:10.452Z,26.48
2022-08-10T08:28:38.355Z,26.55
2022-08-10T08:31:05.261Z,26.58
2022-08-10T08:33:42.146Z,26.76
2022-08-10T08:36:11.341Z,26.80
2022-08-10T08:38:39.279Z,27.22
2022-08-10T08:41:21.451Z,27.58
2022-08-10T08:44:03.437Z,27.88
2022-08-10T08:46:33.361Z,28.27
2022-08-10T08:50:04.974Z,28.29
2022-08-10T08:52:17.836Z,28.64
2022-08-10T08:54:45.381Z,28.02
2022-08-10T08:57:49.367Z,28.40
2022-08-10T09:00:32.086Z,28.59
2022-08-10T09:03:01.819Z,29.04
2022-08-10T09:05:59.772Z,29.07
2022-08-10T09:08:36.138Z,29.42
2022-08-10T09:11:09.131Z,29.67
2022-08-10T09:13:48.281Z,29.43
2022-08-10T09:16:18.123Z,29.42
2022-08-10T09:18:51.144Z,29.79
2022-08-10T09:21:30.147Z,29.80
2022-08-10T09:24:06.892Z,29.04
2022-08-10T09:26:55.083Z,28.41
2022-08-10T09:29:31.296Z,28.44
2022-08-10T09:36:13.563Z,28.51
2022-08-10T09:36:22.449Z,27.61
2022-08-10T09:38:07.470Z,27.74
2022-08-10T09:40:59.900Z,28.01
2022-08-10T09:43:38.238Z,28.44
2022-08-10T09:46:11.738Z,28.32
2022-08-10T09:49:11.220Z,28.81
2022-08-10T09:52:03.593Z,28.43
2022-08-10T09:54:30.454Z,28.43
2022-08-10T09:57:11.952Z,28.61
2022-08-10T09:59:59.982Z,29.09
2022-08-10T10:02:34.439Z,29.36
2022-08-10T10:05:16.278Z,29.63
2022-08-10T10:07:45.973Z,29.38
2022-08-10T10:10:16.192Z,29.30
2022-08-10T10:12:57.030Z,28.91
2022-08-10T10:15:26.865Z,29.13
2022-08-10T10:18:02.535Z,29.44
2022-08-10T10:20:35.419Z,29.60
2022-08-10T10:23:22.529Z,30.04
2022-08-10T10:25:51.027Z,29.94
2022-08-10T10:28:57.473Z,29.31
2022-08-10T10:31:32.744Z,29.72
2022-08-10T10:33:59.556Z,30.04
2022-08-10T10:36:29.692Z,30.24
2022-08-10T10:38:58.051Z,29.73
2022-08-10T10:42:03.293Z,29.52
2022-08-10T10:44:50.084Z,28.68
2022-08-10T10:47:28.797Z,28.74
2022-08-10T10:50:01.492Z,28.82
2022-08-10T10:52:37.585Z,29.00
2022-08-10T10:55:12.444Z,28.91
2022-08-10T10:58:00.519Z,28.98
2022-08-10T11:00:34.505Z,29.13
2022-08-10T11:03:13.509Z,28.79
2022-08-10T11:05:59.384Z,29.22
2022-08-10T11:08:29.057Z,29.07
2022-08-10T11:11:02.671Z,29.23
2022-08-10T11:14:26.972Z,29.60
2022-08-10T11:16:31.614Z,30.10
2022-08-10T11:19:13.248Z,30.37
2022-08-10T11:21:49.367Z,29.93
2022-08-10T11:24:42.938Z,29.49
2022-08-10T11:27:21.571Z,29.45
2022-08-10T11:29:52.005Z,30.17
2022-08-10T11:32:29.173Z,30.50
2022-08-10T11:35:11.362Z,30.27
2022-08-10T11:38:32.337Z,30.22
2022-08-10T11:40:36.023Z,30.05
2022-08-10T11:43:09.841Z,29.83
2022-08-10T11:45:52.138Z,30.45
2022-08-10T11:48:53.125Z,30.43
2022-08-10T11:51:19.567Z,30.06
2022-08-10T11:54:04.039Z,29.95
2022-08-10T11:56:51.388Z,29.70
2022-08-10T11:59:19.334Z,29.58
2022-08-10T12:01:46.979Z,29.67
2022-08-10T12:04:14.763Z,29.20
2022-08-10T12:06:55.339Z,29.84
2022-08-10T12:10:08.687Z,30.35
2022-08-10T12:12:11.987Z,30.41
2022-08-10T12:14:57.413Z,30.88
2022-08-10T12:17:26.673Z,30.46
2022-08-10T12:20:03.943Z,30.33
2022-08-10T12:22:33.988Z,30.20
2022-08-10T12:25:07.180Z,30.54
2022-08-10T12:27:40.072Z,30.43
2022-08-10T12:30:20.916Z,30.32
2022-08-10T12:32:53.761Z,30.31
2022-08-10T12:35:32.430Z,30.06
2022-08-10T12:38:05.026Z,29.68
2022-08-10T12:40:39.918Z,30.03
2022-08-10T12:44:06.203Z,30.51
2022-08-10T12:46:14.476Z,30.78
2022-08-10T12:48:54.287Z,30.88
2022-08-10T12:51:25.062Z,30.92
2022-08-10T12:54:16.140Z,31.06
2022-08-10T12:56:51.325Z,31.14
2022-08-10T12:59:19.015Z,31.10
2022-08-10T13:02:07.727Z,30.93
2022-08-10T13:04:38.884Z,31.20
2022-08-10T13:07:06.946Z,31.43
2022-08-10T13:09:34.600Z,31.36
2022-08-10T13:12:38.214Z,31.22
2022-08-10T13:15:44.863Z,30.72
2022-08-10T13:18:02.567Z,29.80
2022-08-10T13:20:36.771Z,30.20
2022-08-10T13:23:17.280Z,31.06
2022-08-10T13:25:45.528Z,31.50
2022-08-10T13:28:35.606Z,31.93
2022-08-10T13:31:03.606Z,31.74
2022-08-10T13:34:39.095Z,31.49
2022-08-10T13:36:22.245Z,31.33
2022-08-10T13:38:50.018Z,31.36
2022-08-10T13:41:18.286Z,30.87
2022-08-10T13:43:50.416Z,30.71
2022-08-10T13:46:22.165Z,31.23
2022-08-10T13:48:50.838Z,30.58
2022-08-10T13:51:18.831Z,31.22
2022-08-10T13:53:46.885Z,30.98
2022-08-10T13:56:14.428Z,30.54
2022-08-10T13:58:41.830Z,30.55
2022-08-10T14:01:13.898Z,31.02
2022-08-10T14:03:42.150Z,31.26
2022-08-10T14:06:13.352Z,31.54
2022-08-10T14:08:40.998Z,31.34
2022-08-10T14:11:12.582Z,31.44
2022-08-10T14:13:43.368Z,31.33
2022-08-10T14:16:11.323Z,30.57
2022-08-10T14:18:39.036Z,30.36
2022-08-10T14:21:06.686Z,30.88
2022-08-10T14:23:39.355Z,31.30
2022-08-10T14:26:09.147Z,31.16
2022-08-10T14:28:39.560Z,30.84
2022-08-10T14:31:08.015Z,30.86
2022-08-10T14:33:35.421Z,30.74
2022-08-10T14:36:21.108Z,30.82
2022-08-10T14:38:52.944Z,30.68
2022-08-10T14:42:01.530Z,31.14
2022-08-10T14:44:13.107Z,30.99
2022-08-10T14:46:45.103Z,31.07
2022-08-10T14:49:26.204Z,31.37
2022-08-10T14:51:59.305Z,31.40
2022-08-10T14:54:29.510Z,31.33
2022-08-10T14:57:11.438Z,31.49
2022-08-10T15:00:23.304Z,31.99
2022-08-10T15:02:40.923Z,32.21
2022-08-10T15:05:16.693Z,32.67
2022-08-10T15:07:47.792Z,33.03
2022-08-10T15:10:28.045Z,33.33
2022-08-10T15:12:58.594Z,33.56
2022-08-10T15:15:28.796Z,33.83
2022-08-10T15:17:57.339Z,34.17
2022-08-10T15:20:25.759Z,33.97
2022-08-10T15:22:54.452Z,34.32
2022-08-10T15:25:25.281Z,34.62
2022-08-10T15:27:56.625Z,34.67
2022-08-10T15:30:30.273Z,34.66
2022-08-10T15:32:59.154Z,34.25
2022-08-10T15:35:29.142Z,34.50
2022-08-10T15:38:01.056Z,34.81
2022-08-10T15:40:31.152Z,34.85
2022-08-10T15:43:05.663Z,35.01
2022-08-10T15:45:55.212Z,35.38
2022-08-10T15:48:24.162Z,35.38
2022-08-10T15:50:56.640Z,34.97
2022-08-10T15:53:49.389Z,34.30
2022-08-10T15:56:37.084Z,34.54
2022-08-10T15:59:08.489Z,35.00
2022-08-10T16:02:12.462Z,35.28
2022-08-10T16:04:31.761Z,35.02
2022-08-10T16:07:03.705Z,34.18
2022-08-10T16:10:22.411Z,33.77
2022-08-10T16:12:30.038Z,33.47
2022-08-10T16:14:59.639Z,33.01
2022-08-10T16:17:27.096Z,32.57
2022-08-10T16:19:56.695Z,32.36
2022-08-10T16:22:35.538Z,32.13
2022-08-10T16:25:11.431Z,31.69
2022-08-10T16:27:39.145Z,31.37
2022-08-10T16:30:06.427Z,31.17
2022-08-10T16:32:37.261Z,31.07
2022-08-10T16:35:09.283Z,30.54
2022-08-10T16:37:58.765Z,30.55
2022-08-10T16:40:25.577Z,30.20
2022-08-10T16:42:52.960Z,29.80
2022-08-10T16:45:29.009Z,29.68
2022-08-10T16:47:56.434Z,29.60
2022-08-10T16:50:30.799Z,29.69
2022-08-10T16:52:58.254Z,29.57
2022-08-10T16:55:49.071Z,29.58
2022-08-10T16:58:13.881Z,29.42
2022-08-10T17:00:42.330Z,29.34
2022-08-10T17:03:22.677Z,29.24
2022-08-10T17:06:01.674Z,29.07
2022-08-10T17:08:48.536Z,28.96
2022-08-10T17:11:17.333Z,28.78
2022-08-10T17:13:44.745Z,28.63
2022-08-10T17:16:12.188Z,28.58
2022-08-10T17:18:40.663Z,28.54
2022-08-10T17:21:10.040Z,28.47
2022-08-10T17:23:39.813Z,28.26
2022-08-10T17:26:09.655Z,28.01
2022-08-10T17:28:41.693Z,27.94
2022-08-10T17:31:53.195Z,27.73
2022-08-10T17:34:11.615Z,27.37
2022-08-10T17:36:40.542Z,27.05
2022-08-10T17:39:11.107Z,26.85
2022-08-10T17:41:38.703Z,26.68
2022-08-10T17:44:06.088Z,26.59
2022-08-10T17:46:35.980Z,26.56
2022-08-10T17:49:05.750Z,26.34
2022-08-10T17:51:33.701Z,26.12
2022-08-10T17:54:01.764Z,25.86
2022-08-10T17:56:31.532Z,25.75
2022-08-10T17:59:00.682Z,25.55
2022-08-10T18:01:41.599Z,25.48
2022-08-10T18:04:19.361Z,25.33
2022-08-10T18:06:52.345Z,25.14
2022-08-10T18:09:26.679Z,25.12
2022-08-10T18:12:00.657Z,24.98
2022-08-10T18:14:31.385Z,24.76
2022-08-10T18:16:59.782Z,24.53
2022-08-10T18:19:29.496Z,24.44
2022-08-10T18:21:56.931Z,24.27
2022-08-10T18:24:24.392Z,24.19
2022-08-10T18:26:52.815Z,24.00
2022-08-10T18:29:23.167Z,23.97
2022-08-10T18:31:55.407Z,23.92
2022-08-10T18:34:24.377Z,23.84
2022-08-10T18:36:53.067Z,23.86
2022-08-10T18:39:21.887Z,23.82
2022-08-10T18:42:00.323Z,23.74
2022-08-10T18:44:35.263Z,23.56
2022-08-10T18:47:09.128Z,23.42
2022-08-10T18:49:38.743Z,23.34
2022-08-10T18:52:06.902Z,23.21
2022-08-10T18:54:45.021Z,23.07
2022-08-10T18:57:18.479Z,23.01
2022-08-10T19:00:03.896Z,22.97
2022-08-10T19:02:54.050Z,22.95
2022-08-10T19:05:32.130Z,22.98
2022-08-10T19:08:30.808Z,23.07
2022-08-10T19:11:16.750Z,23.27
2022-08-10T19:13:48.814Z,23.33
2022-08-10T19:16:18.785Z,23.31
2022-08-10T19:19:04.469Z,23.36
2022-08-10T19:21:34.733Z,23.37
2022-08-10T19:24:13.765Z,23.36
2022-08-10T19:26:46.390Z,23.29
2022-08-10T19:30:00.827Z,23.21
2022-08-10T19:32:03.069Z,23.24
2022-08-10T19:34:29.928Z,23.29
2022-08-10T19:37:19.940Z,23.25
2022-08-10T19:40:12.223Z,23.23
2022-08-10T19:42:52.294Z,23.08
2022-08-10T19:46:01.771Z,22.99
2022-08-10T19:48:27.083Z,22.86
2022-08-10T19:51:04.396Z,22.85
2022-08-10T19:53:38.945Z,22.81
2022-08-10T19:56:33.011Z,22.75
2022-08-10T19:59:03.923Z,22.63
2022-08-10T20:01:55.605Z,22.52
2022-08-10T20:04:32.229Z,22.41
2022-08-10T20:07:10.700Z,22.27
2022-08-10T20:09:37.516Z,22.25
2022-08-10T20:12:06.754Z,22.35
2022-08-10T20:14:37.893Z,22.43
2022-08-10T20:17:13.154Z,22.44
2022-08-10T20:19:53.030Z,22.48
2022-08-10T20:22:34.860Z,22.56
2022-08-10T20:25:03.827Z,22.53
2022-08-10T20:28:00.950Z,22.44
2022-08-10T20:30:49.900Z,22.38
2022-08-10T20:33:26.763Z,22.29
2022-08-10T20:36:25.999Z,22.24
2022-08-10T20:39:11.920Z,22.29
2022-08-10T20:41:56.665Z,22.19
2022-08-10T20:44:35.720Z,22.08
2022-08-10T20:47:08.591Z,21.90
2022-08-10T20:49:50.780Z,21.70
2022-08-10T20:52:18.368Z,21.40
2022-08-10T20:54:53.813Z,21.21
2022-08-10T20:57:55.962Z,20.97
2022-08-10T21:00:09.917Z,20.79
2022-08-10T21:02:47.924Z,20.57
2022-08-10T21:05:34.318Z,20.38
2022-08-10T21:08:25.620Z,20.20
2022-08-10T21:11:11.194Z,20.13
2022-08-10T21:13:40.776Z,20.01
2022-08-10T21:16:07.615Z,19.93
2022-08-10T21:18:34.744Z,19.84
2022-08-10T21:21:18.424Z,19.78
2022-08-10T21:24:07.216Z,19.68
2022-08-10T21:26:56.319Z,19.58
2022-08-10T21:29:39.981Z,19.52
2022-08-10T21:32:18.206Z,19.39
2022-08-10T21:34:54.233Z,19.29
2022-08-10T21:37:39.584Z,19.23
2022-08-10T21:40:32.223Z,19.12
2022-08-10T21:42:56.943Z,19.04
2022-08-10T21:48:39.966Z,18.90
2022-08-10T21:52:00.686Z,18.85
2022-08-10T21:54:37.652Z,18.82
2022-08-10T21:57:07.643Z,18.78
2022-08-10T21:59:41.946Z,18.77
2022-08-10T22:02:09.641Z,18.73
2022-08-10T22:04:36.626Z,18.66
2022-08-10T22:07:04.805Z,18.66
2022-08-10T22:09:42.688Z,18.62
2022-08-10T22:12:31.170Z,18.58
2022-08-10T22:15:03.435Z,18.52
2022-08-10T22:18:03.803Z,18.50
2022-08-10T22:20:31.210Z,18.45
2022-08-10T22:23:19.187Z,18.32
2022-08-10T22:26:00.328Z,18.28
2022-08-10T22:28:27.337Z,18.24
2022-08-10T22:31:28.388Z,18.99
2022-08-10T22:31:31.080Z,18.21
2022-08-10T22:34:17.995Z,18.11
2022-08-10T22:36:55.539Z,18.02
2022-08-10T22:40:11.657Z,17.95
2022-08-10T22:42:28.833Z,17.89
2022-08-10T22:44:56.490Z,17.81
2022-08-10T22:47:24.112Z,17.76
2022-08-10T22:49:51.852Z,17.69
2022-08-10T22:52:20.657Z,17.63
2022-08-10T22:54:53.708Z,17.58
2022-08-10T22:57:20.674Z,17.50
2022-08-10T22:59:48.340Z,17.45
2022-08-10T23:02:34.341Z,17.42
2022-08-10T23:05:27.248Z,17.37
2022-08-10T23:07:58.456Z,17.30
2022-08-10T23:10:27.744Z,17.31
2022-08-10T23:13:05.287Z,17.26
2022-08-10T23:15:36.291Z,17.22
2022-08-10T23:18:04.061Z,17.18
2022-08-10T23:20:34.840Z,17.09
2022-08-10T23:23:07.396Z,17.02
2022-08-10T23:25:56.109Z,16.93
2022-08-10T23:28:39.097Z,16.86
2022-08-10T23:31:12.231Z,16.77
2022-08-10T23:33:40.760Z,16.73
2022-08-10T23:36:34.675Z,16.69
2022-08-10T23:39:24.238Z,16.60
2022-08-10T23:41:46.709Z,16.60
2022-08-10T23:44:22.247Z,16.56
2022-08-10T23:46:49.496Z,16.52
2022-08-10T23:49:16.783Z,16.45
2022-08-10T23:51:55.535Z,16.42
2022-08-10T23:54:23.920Z,16.41
2022-08-10T23:56:54.178Z,16.33
2022-08-10T23:59:22.387Z,16.34
